sensor_id;sensor_type;location;lat;lon;timestamp;P1;durP1;ratioP1;P2;durP2;ratioP2
11496;SDS011;5805;51.542;7.230;2024-03-08T00:00:01;14.68;;;10.18;;
11496;SDS011;5805;51.542;7.230;2024-03-08T00:02:27;13.68;;;9.07;;
11496;SDS011;5805;51.542;7.230;2024-03-08T00:04:53;14.35;;;9.60;;
11496;SDS011;5805;51.542;7.230;2024-03-08T00:07:20;14.05;;;9.93;;
11496;SDS011;5805;51.542;7.230;2024-03-08T00:09:45;12.43;;;9.88;;
11496;SDS011;5805;51.542;7.230;2024-03-08T00:12:11;11.30;;;9.10;;
11496;SDS011;5805;51.542;7.230;2024-03-08T00:14:37;15.43;;;10.15;;
11496;SDS011;5805;51.542;7.230;2024-03-08T00:17:03;14.13;;;9.63;;
11496;SDS011;5805;51.542;7.230;2024-03-08T00:19:29;14.38;;;9.57;;
11496;SDS011;5805;51.542;7.230;2024-03-08T00:21:54;15.60;;;10.30;;
11496;SDS011;5805;51.542;7.230;2024-03-08T00:24:21;16.08;;;10.10;;
11496;SDS011;5805;51.542;7.230;2024-03-08T00:26:47;11.27;;;9.23;;
11496;SDS011;5805;51.542;7.230;2024-03-08T00:29:13;11.82;;;9.82;;
11496;SDS011;5805;51.542;7.230;2024-03-08T00:31:38;15.70;;;9.95;;
11496;SDS011;5805;51.542;7.230;2024-03-08T00:34:04;12.75;;;10.68;;
11496;SDS011;5805;51.542;7.230;2024-03-08T00:36:30;15.07;;;10.23;;
11496;SDS011;5805;51.542;7.230;2024-03-08T00:38:55;13.35;;;10.00;;
11496;SDS011;5805;51.542;7.230;2024-03-08T00:41:23;13.30;;;10.38;;
11496;SDS011;5805;51.542;7.230;2024-03-08T00:43:48;16.13;;;10.60;;
11496;SDS011;5805;51.542;7.230;2024-03-08T00:46:14;14.43;;;10.45;;
11496;SDS011;5805;51.542;7.230;2024-03-08T00:48:40;12.48;;;10.38;;
11496;SDS011;5805;51.542;7.230;2024-03-08T00:51:05;14.52;;;10.10;;
11496;SDS011;5805;51.542;7.230;2024-03-08T00:53:31;13.52;;;9.73;;
11496;SDS011;5805;51.542;7.230;2024-03-08T00:55:57;12.77;;;10.30;;
11496;SDS011;5805;51.542;7.230;2024-03-08T00:58:24;14.07;;;10.60;;
11496;SDS011;5805;51.542;7.230;2024-03-08T01:00:49;16.15;;;10.07;;
11496;SDS011;5805;51.542;7.230;2024-03-08T01:03:15;14.40;;;10.35;;
11496;SDS011;5805;51.542;7.230;2024-03-08T01:05:41;12.23;;;10.00;;
11496;SDS011;5805;51.542;7.230;2024-03-08T01:08:07;12.25;;;10.00;;
11496;SDS011;5805;51.542;7.230;2024-03-08T01:10:32;16.98;;;9.80;;
11496;SDS011;5805;51.542;7.230;2024-03-08T01:12:58;14.60;;;10.50;;
11496;SDS011;5805;51.542;7.230;2024-03-08T01:15:25;11.88;;;9.48;;
11496;SDS011;5805;51.542;7.230;2024-03-08T01:17:51;17.33;;;10.55;;
11496;SDS011;5805;51.542;7.230;2024-03-08T01:20:16;16.80;;;11.20;;
11496;SDS011;5805;51.542;7.230;2024-03-08T01:22:42;14.23;;;10.95;;
11496;SDS011;5805;51.542;7.230;2024-03-08T01:25:08;16.75;;;10.25;;
11496;SDS011;5805;51.542;7.230;2024-03-08T01:27:33;13.32;;;10.23;;
11496;SDS011;5805;51.542;7.230;2024-03-08T01:29:59;14.43;;;10.88;;
11496;SDS011;5805;51.542;7.230;2024-03-08T01:32:26;15.02;;;11.30;;
11496;SDS011;5805;51.542;7.230;2024-03-08T01:34:52;15.38;;;11.57;;
11496;SDS011;5805;51.542;7.230;2024-03-08T01:37:18;14.37;;;11.03;;
11496;SDS011;5805;51.542;7.230;2024-03-08T01:39:43;14.68;;;10.88;;
11496;SDS011;5805;51.542;7.230;2024-03-08T01:42:09;15.85;;;10.90;;
11496;SDS011;5805;51.542;7.230;2024-03-08T01:44:35;14.75;;;10.65;;
11496;SDS011;5805;51.542;7.230;2024-03-08T01:47:00;15.20;;;11.00;;
11496;SDS011;5805;51.542;7.230;2024-03-08T01:49:28;14.60;;;10.83;;
11496;SDS011;5805;51.542;7.230;2024-03-08T01:51:54;13.27;;;10.48;;
11496;SDS011;5805;51.542;7.230;2024-03-08T01:54:20;15.55;;;10.95;;
11496;SDS011;5805;51.542;7.230;2024-03-08T01:56:46;16.05;;;11.18;;
11496;SDS011;5805;51.542;7.230;2024-03-08T01:59:13;15.35;;;11.25;;
11496;SDS011;5805;51.542;7.230;2024-03-08T02:01:39;19.30;;;10.63;;
11496;SDS011;5805;51.542;7.230;2024-03-08T02:04:05;14.88;;;11.43;;
11496;SDS011;5805;51.542;7.230;2024-03-08T02:06:33;16.93;;;11.23;;
11496;SDS011;5805;51.542;7.230;2024-03-08T02:08:58;16.15;;;11.68;;
11496;SDS011;5805;51.542;7.230;2024-03-08T02:11:24;13.23;;;10.32;;
11496;SDS011;5805;51.542;7.230;2024-03-08T02:13:50;14.80;;;11.37;;
11496;SDS011;5805;51.542;7.230;2024-03-08T02:16:19;13.73;;;10.80;;
11496;SDS011;5805;51.542;7.230;2024-03-08T02:18:45;15.03;;;10.70;;
11496;SDS011;5805;51.542;7.230;2024-03-08T02:21:13;16.17;;;11.53;;
11496;SDS011;5805;51.542;7.230;2024-03-08T02:23:41;14.03;;;10.60;;
11496;SDS011;5805;51.542;7.230;2024-03-08T02:26:07;13.87;;;10.90;;
11496;SDS011;5805;51.542;7.230;2024-03-08T02:28:33;12.87;;;11.23;;
11496;SDS011;5805;51.542;7.230;2024-03-08T02:30:58;16.80;;;11.77;;
11496;SDS011;5805;51.542;7.230;2024-03-08T02:33:24;14.90;;;11.43;;
11496;SDS011;5805;51.542;7.230;2024-03-08T02:35:51;14.87;;;11.47;;
11496;SDS011;5805;51.542;7.230;2024-03-08T02:38:19;16.57;;;10.97;;
11496;SDS011;5805;51.542;7.230;2024-03-08T02:40:46;15.60;;;11.23;;
11496;SDS011;5805;51.542;7.230;2024-03-08T02:43:13;15.37;;;12.17;;
11496;SDS011;5805;51.542;7.230;2024-03-08T02:45:40;14.83;;;11.57;;
11496;SDS011;5805;51.542;7.230;2024-03-08T02:48:06;16.90;;;11.97;;
11496;SDS011;5805;51.542;7.230;2024-03-08T02:50:32;17.13;;;11.43;;
11496;SDS011;5805;51.542;7.230;2024-03-08T02:52:58;15.33;;;11.60;;
11496;SDS011;5805;51.542;7.230;2024-03-08T02:55:25;15.37;;;10.03;;
11496;SDS011;5805;51.542;7.230;2024-03-08T02:57:51;15.38;;;11.88;;
11496;SDS011;5805;51.542;7.230;2024-03-08T03:00:17;23.27;;;11.47;;
11496;SDS011;5805;51.542;7.230;2024-03-08T03:02:43;15.47;;;10.77;;
11496;SDS011;5805;51.542;7.230;2024-03-08T03:05:09;13.50;;;10.73;;
11496;SDS011;5805;51.542;7.230;2024-03-08T03:07:34;16.60;;;11.40;;
11496;SDS011;5805;51.542;7.230;2024-03-08T03:10:00;16.00;;;11.83;;
11496;SDS011;5805;51.542;7.230;2024-03-08T03:12:28;14.70;;;11.30;;
11496;SDS011;5805;51.542;7.230;2024-03-08T03:14:55;14.30;;;10.60;;
11496;SDS011;5805;51.542;7.230;2024-03-08T03:17:20;14.83;;;11.03;;
11496;SDS011;5805;51.542;7.230;2024-03-08T03:19:46;15.97;;;11.23;;
11496;SDS011;5805;51.542;7.230;2024-03-08T03:22:12;13.00;;;10.80;;
11496;SDS011;5805;51.542;7.230;2024-03-08T03:24:37;14.23;;;10.83;;
11496;SDS011;5805;51.542;7.230;2024-03-08T03:27:03;16.10;;;11.70;;
11496;SDS011;5805;51.542;7.230;2024-03-08T03:29:30;14.73;;;11.73;;
11496;SDS011;5805;51.542;7.230;2024-03-08T03:31:56;14.93;;;10.83;;
11496;SDS011;5805;51.542;7.230;2024-03-08T03:34:22;14.73;;;10.77;;
11496;SDS011;5805;51.542;7.230;2024-03-08T03:36:47;12.73;;;10.97;;
11496;SDS011;5805;51.542;7.230;2024-03-08T03:39:13;17.00;;;12.27;;
11496;SDS011;5805;51.542;7.230;2024-03-08T03:41:39;17.37;;;11.50;;
11496;SDS011;5805;51.542;7.230;2024-03-08T03:44:04;16.77;;;11.97;;
11496;SDS011;5805;51.542;7.230;2024-03-08T03:46:32;20.83;;;12.03;;
11496;SDS011;5805;51.542;7.230;2024-03-08T03:48:57;16.37;;;11.20;;
11496;SDS011;5805;51.542;7.230;2024-03-08T03:51:23;14.07;;;10.10;;
11496;SDS011;5805;51.542;7.230;2024-03-08T03:53:49;14.93;;;11.47;;
11496;SDS011;5805;51.542;7.230;2024-03-08T03:56:14;15.33;;;10.93;;
11496;SDS011;5805;51.542;7.230;2024-03-08T03:58:40;18.10;;;12.03;;
11496;SDS011;5805;51.542;7.230;2024-03-08T04:01:06;18.10;;;12.13;;
11496;SDS011;5805;51.542;7.230;2024-03-08T04:03:33;15.57;;;11.67;;
11496;SDS011;5805;51.542;7.230;2024-03-08T04:05:59;19.73;;;12.10;;
11496;SDS011;5805;51.542;7.230;2024-03-08T04:08:24;16.83;;;11.97;;
11496;SDS011;5805;51.542;7.230;2024-03-08T04:10:50;19.53;;;12.20;;
11496;SDS011;5805;51.542;7.230;2024-03-08T04:13:16;15.37;;;11.77;;
11496;SDS011;5805;51.542;7.230;2024-03-08T04:15:42;15.50;;;11.47;;
11496;SDS011;5805;51.542;7.230;2024-03-08T04:18:07;14.90;;;11.57;;
11496;SDS011;5805;51.542;7.230;2024-03-08T04:20:34;15.60;;;11.13;;
11496;SDS011;5805;51.542;7.230;2024-03-08T04:23:00;16.53;;;12.47;;
11496;SDS011;5805;51.542;7.230;2024-03-08T04:25:27;14.60;;;11.53;;
11496;SDS011;5805;51.542;7.230;2024-03-08T04:27:53;18.00;;;12.60;;
11496;SDS011;5805;51.542;7.230;2024-03-08T04:30:19;14.57;;;11.80;;
11496;SDS011;5805;51.542;7.230;2024-03-08T04:32:44;14.47;;;11.67;;
11496;SDS011;5805;51.542;7.230;2024-03-08T04:35:10;14.93;;;11.13;;
11496;SDS011;5805;51.542;7.230;2024-03-08T04:37:37;14.67;;;10.93;;
11496;SDS011;5805;51.542;7.230;2024-03-08T04:40:03;15.33;;;11.57;;
11496;SDS011;5805;51.542;7.230;2024-03-08T04:42:29;16.63;;;12.07;;
11496;SDS011;5805;51.542;7.230;2024-03-08T04:44:56;17.43;;;11.33;;
11496;SDS011;5805;51.542;7.230;2024-03-08T04:47:22;16.17;;;11.60;;
11496;SDS011;5805;51.542;7.230;2024-03-08T04:49:48;17.97;;;12.07;;
11496;SDS011;5805;51.542;7.230;2024-03-08T04:52:14;15.43;;;11.47;;
11496;SDS011;5805;51.542;7.230;2024-03-08T04:54:41;17.20;;;12.50;;
11496;SDS011;5805;51.542;7.230;2024-03-08T04:57:07;17.10;;;12.70;;
11496;SDS011;5805;51.542;7.230;2024-03-08T04:59:33;17.83;;;12.47;;
11496;SDS011;5805;51.542;7.230;2024-03-08T05:01:59;17.20;;;11.80;;
11496;SDS011;5805;51.542;7.230;2024-03-08T05:04:24;17.67;;;12.07;;
11496;SDS011;5805;51.542;7.230;2024-03-08T05:06:50;16.67;;;11.20;;
11496;SDS011;5805;51.542;7.230;2024-03-08T05:09:16;18.63;;;13.23;;
11496;SDS011;5805;51.542;7.230;2024-03-08T05:11:43;14.70;;;11.93;;
11496;SDS011;5805;51.542;7.230;2024-03-08T05:14:09;18.17;;;11.67;;
11496;SDS011;5805;51.542;7.230;2024-03-08T05:16:35;17.57;;;11.53;;
11496;SDS011;5805;51.542;7.230;2024-03-08T05:19:01;18.10;;;12.40;;
11496;SDS011;5805;51.542;7.230;2024-03-08T05:21:26;17.53;;;12.57;;
11496;SDS011;5805;51.542;7.230;2024-03-08T05:23:52;17.93;;;11.67;;
11496;SDS011;5805;51.542;7.230;2024-03-08T05:26:18;17.43;;;12.10;;
11496;SDS011;5805;51.542;7.230;2024-03-08T05:28:45;16.40;;;12.10;;
11496;SDS011;5805;51.542;7.230;2024-03-08T05:31:10;15.10;;;12.13;;
11496;SDS011;5805;51.542;7.230;2024-03-08T05:33:44;15.63;;;12.27;;
11496;SDS011;5805;51.542;7.230;2024-03-08T05:36:09;18.97;;;12.80;;
11496;SDS011;5805;51.542;7.230;2024-03-08T05:38:35;16.13;;;11.90;;
11496;SDS011;5805;51.542;7.230;2024-03-08T05:41:00;15.57;;;12.00;;
11496;SDS011;5805;51.542;7.230;2024-03-08T05:43:26;15.07;;;12.17;;
11496;SDS011;5805;51.542;7.230;2024-03-08T05:45:53;17.07;;;12.50;;
11496;SDS011;5805;51.542;7.230;2024-03-08T05:48:19;18.70;;;11.67;;
11496;SDS011;5805;51.542;7.230;2024-03-08T05:50:45;17.50;;;12.00;;
11496;SDS011;5805;51.542;7.230;2024-03-08T05:53:10;18.53;;;12.83;;
11496;SDS011;5805;51.542;7.230;2024-03-08T05:55:36;16.70;;;12.27;;
11496;SDS011;5805;51.542;7.230;2024-03-08T05:58:02;22.73;;;12.97;;
11496;SDS011;5805;51.542;7.230;2024-03-08T06:00:28;16.37;;;12.60;;
11496;SDS011;5805;51.542;7.230;2024-03-08T06:02:55;17.50;;;12.67;;
11496;SDS011;5805;51.542;7.230;2024-03-08T06:05:21;17.47;;;12.93;;
11496;SDS011;5805;51.542;7.230;2024-03-08T06:07:46;20.47;;;13.27;;
11496;SDS011;5805;51.542;7.230;2024-03-08T06:10:12;17.20;;;12.30;;
11496;SDS011;5805;51.542;7.230;2024-03-08T06:12:37;18.87;;;13.57;;
11496;SDS011;5805;51.542;7.230;2024-03-08T06:15:04;15.73;;;11.93;;
11496;SDS011;5805;51.542;7.230;2024-03-08T06:17:30;17.40;;;13.07;;
11496;SDS011;5805;51.542;7.230;2024-03-08T06:19:57;16.33;;;12.57;;
11496;SDS011;5805;51.542;7.230;2024-03-08T06:22:23;17.57;;;12.63;;
11496;SDS011;5805;51.542;7.230;2024-03-08T06:24:48;16.03;;;12.37;;
11496;SDS011;5805;51.542;7.230;2024-03-08T06:27:14;17.90;;;12.50;;
11496;SDS011;5805;51.542;7.230;2024-03-08T06:29:40;18.30;;;12.33;;
11496;SDS011;5805;51.542;7.230;2024-03-08T06:32:06;19.53;;;12.60;;
11496;SDS011;5805;51.542;7.230;2024-03-08T06:34:32;17.53;;;12.63;;
11496;SDS011;5805;51.542;7.230;2024-03-08T06:36:59;19.20;;;13.47;;
11496;SDS011;5805;51.542;7.230;2024-03-08T06:39:25;16.23;;;12.53;;
11496;SDS011;5805;51.542;7.230;2024-03-08T06:41:50;18.20;;;13.23;;
11496;SDS011;5805;51.542;7.230;2024-03-08T06:44:16;18.63;;;12.93;;
11496;SDS011;5805;51.542;7.230;2024-03-08T06:46:42;21.43;;;13.33;;
11496;SDS011;5805;51.542;7.230;2024-03-08T06:49:08;16.83;;;12.53;;
11496;SDS011;5805;51.542;7.230;2024-03-08T06:51:33;17.57;;;13.33;;
11496;SDS011;5805;51.542;7.230;2024-03-08T06:54:00;22.07;;;13.60;;
11496;SDS011;5805;51.542;7.230;2024-03-08T06:56:26;22.05;;;13.93;;
11496;SDS011;5805;51.542;7.230;2024-03-08T06:58:52;17.77;;;12.83;;
11496;SDS011;5805;51.542;7.230;2024-03-08T07:01:18;18.17;;;13.60;;
11496;SDS011;5805;51.542;7.230;2024-03-08T07:03:43;18.07;;;11.83;;
11496;SDS011;5805;51.542;7.230;2024-03-08T07:06:09;17.48;;;12.80;;
11496;SDS011;5805;51.542;7.230;2024-03-08T07:08:35;18.13;;;12.43;;
11496;SDS011;5805;51.542;7.230;2024-03-08T07:11:02;18.23;;;12.73;;
11496;SDS011;5805;51.542;7.230;2024-03-08T07:13:28;19.17;;;12.80;;
11496;SDS011;5805;51.542;7.230;2024-03-08T07:15:54;20.85;;;12.93;;
11496;SDS011;5805;51.542;7.230;2024-03-08T07:18:20;17.98;;;13.23;;
11496;SDS011;5805;51.542;7.230;2024-03-08T07:20:45;16.05;;;12.50;;
11496;SDS011;5805;51.542;7.230;2024-03-08T07:23:14;18.92;;;12.32;;
11496;SDS011;5805;51.542;7.230;2024-03-08T07:25:39;19.73;;;13.38;;
11496;SDS011;5805;51.542;7.230;2024-03-08T07:28:06;17.20;;;12.88;;
11496;SDS011;5805;51.542;7.230;2024-03-08T07:30:32;18.75;;;13.18;;
11496;SDS011;5805;51.542;7.230;2024-03-08T07:32:58;17.77;;;12.75;;
11496;SDS011;5805;51.542;7.230;2024-03-08T07:35:23;17.23;;;13.35;;
11496;SDS011;5805;51.542;7.230;2024-03-08T07:37:49;19.77;;;13.30;;
11496;SDS011;5805;51.542;7.230;2024-03-08T07:40:15;17.58;;;13.35;;
11496;SDS011;5805;51.542;7.230;2024-03-08T07:42:40;18.63;;;12.57;;
11496;SDS011;5805;51.542;7.230;2024-03-08T07:45:08;19.77;;;13.57;;
11496;SDS011;5805;51.542;7.230;2024-03-08T07:47:34;20.08;;;13.35;;
11496;SDS011;5805;51.542;7.230;2024-03-08T07:50:00;18.45;;;13.07;;
11496;SDS011;5805;51.542;7.230;2024-03-08T07:52:26;17.65;;;12.38;;
11496;SDS011;5805;51.542;7.230;2024-03-08T07:54:52;17.83;;;13.25;;
11496;SDS011;5805;51.542;7.230;2024-03-08T07:57:17;19.15;;;13.25;;
11496;SDS011;5805;51.542;7.230;2024-03-08T07:59:43;16.95;;;12.50;;
11496;SDS011;5805;51.542;7.230;2024-03-08T08:02:10;19.08;;;12.88;;
11496;SDS011;5805;51.542;7.230;2024-03-08T08:04:36;18.17;;;12.23;;
11496;SDS011;5805;51.542;7.230;2024-03-08T08:07:02;16.15;;;12.13;;
11496;SDS011;5805;51.542;7.230;2024-03-08T08:09:28;17.77;;;12.68;;
11496;SDS011;5805;51.542;7.230;2024-03-08T08:11:54;20.08;;;13.48;;
11496;SDS011;5805;51.542;7.230;2024-03-08T08:14:19;16.83;;;13.20;;
11496;SDS011;5805;51.542;7.230;2024-03-08T08:16:45;16.80;;;12.85;;
11496;SDS011;5805;51.542;7.230;2024-03-08T08:19:12;18.90;;;12.48;;
11496;SDS011;5805;51.542;7.230;2024-03-08T08:21:39;19.13;;;14.68;;
11496;SDS011;5805;51.542;7.230;2024-03-08T08:24:05;18.13;;;13.25;;
11496;SDS011;5805;51.542;7.230;2024-03-08T08:26:31;17.13;;;12.38;;
11496;SDS011;5805;51.542;7.230;2024-03-08T08:28:57;17.23;;;12.77;;
11496;SDS011;5805;51.542;7.230;2024-03-08T08:31:22;20.10;;;13.63;;
11496;SDS011;5805;51.542;7.230;2024-03-08T08:33:48;16.92;;;12.13;;
11496;SDS011;5805;51.542;7.230;2024-03-08T08:36:15;17.77;;;13.00;;
11496;SDS011;5805;51.542;7.230;2024-03-08T08:38:41;19.35;;;13.05;;
11496;SDS011;5805;51.542;7.230;2024-03-08T08:41:07;17.52;;;13.10;;
11496;SDS011;5805;51.542;7.230;2024-03-08T08:43:32;17.58;;;13.35;;
11496;SDS011;5805;51.542;7.230;2024-03-08T08:45:58;19.05;;;13.52;;
11496;SDS011;5805;51.542;7.230;2024-03-08T08:48:24;20.50;;;13.75;;
11496;SDS011;5805;51.542;7.230;2024-03-08T08:50:50;17.95;;;13.13;;
11496;SDS011;5805;51.542;7.230;2024-03-08T08:53:17;18.90;;;13.30;;
11496;SDS011;5805;51.542;7.230;2024-03-08T08:55:43;17.85;;;12.35;;
11496;SDS011;5805;51.542;7.230;2024-03-08T08:58:09;18.30;;;12.80;;
11496;SDS011;5805;51.542;7.230;2024-03-08T09:00:35;18.10;;;12.68;;
11496;SDS011;5805;51.542;7.230;2024-03-08T09:03:00;15.55;;;10.75;;
11496;SDS011;5805;51.542;7.230;2024-03-08T09:05:26;19.45;;;12.90;;
11496;SDS011;5805;51.542;7.230;2024-03-08T09:07:52;19.55;;;13.13;;
11496;SDS011;5805;51.542;7.230;2024-03-08T09:10:19;17.10;;;12.65;;
11496;SDS011;5805;51.542;7.230;2024-03-08T09:12:45;18.77;;;13.05;;
11496;SDS011;5805;51.542;7.230;2024-03-08T09:15:11;17.45;;;12.20;;
11496;SDS011;5805;51.542;7.230;2024-03-08T09:17:36;15.73;;;11.88;;
11496;SDS011;5805;51.542;7.230;2024-03-08T09:20:02;17.65;;;11.88;;
11496;SDS011;5805;51.542;7.230;2024-03-08T09:22:29;19.80;;;13.10;;
11496;SDS011;5805;51.542;7.230;2024-03-08T09:24:54;19.08;;;13.25;;
11496;SDS011;5805;51.542;7.230;2024-03-08T09:27:21;14.80;;;11.55;;
11496;SDS011;5805;51.542;7.230;2024-03-08T09:29:47;17.30;;;11.60;;
11496;SDS011;5805;51.542;7.230;2024-03-08T09:32:13;18.80;;;12.15;;
11496;SDS011;5805;51.542;7.230;2024-03-08T09:34:38;16.17;;;12.25;;
11496;SDS011;5805;51.542;7.230;2024-03-08T09:37:04;14.27;;;10.30;;
11496;SDS011;5805;51.542;7.230;2024-03-08T09:39:30;16.98;;;11.82;;
11496;SDS011;5805;51.542;7.230;2024-03-08T09:41:56;15.23;;;11.63;;
11496;SDS011;5805;51.542;7.230;2024-03-08T09:44:23;14.52;;;11.10;;
11496;SDS011;5805;51.542;7.230;2024-03-08T09:46:49;17.42;;;12.65;;
11496;SDS011;5805;51.542;7.230;2024-03-08T09:49:15;12.70;;;9.25;;
11496;SDS011;5805;51.542;7.230;2024-03-08T09:51:41;15.88;;;11.90;;
11496;SDS011;5805;51.542;7.230;2024-03-08T09:54:07;17.75;;;11.95;;
11496;SDS011;5805;51.542;7.230;2024-03-08T09:56:32;16.55;;;12.68;;
11496;SDS011;5805;51.542;7.230;2024-03-08T09:58:59;15.35;;;12.13;;
11496;SDS011;5805;51.542;7.230;2024-03-08T10:01:26;17.20;;;12.98;;
11496;SDS011;5805;51.542;7.230;2024-03-08T10:03:52;14.63;;;10.85;;
11496;SDS011;5805;51.542;7.230;2024-03-08T10:06:20;17.58;;;12.65;;
11496;SDS011;5805;51.542;7.230;2024-03-08T10:08:48;15.80;;;11.73;;
11496;SDS011;5805;51.542;7.230;2024-03-08T10:11:13;17.02;;;12.25;;
11496;SDS011;5805;51.542;7.230;2024-03-08T10:13:39;17.23;;;11.18;;
11496;SDS011;5805;51.542;7.230;2024-03-08T10:16:05;16.08;;;12.07;;
11496;SDS011;5805;51.542;7.230;2024-03-08T10:18:32;15.70;;;12.45;;
11496;SDS011;5805;51.542;7.230;2024-03-08T10:21:04;16.70;;;12.50;;
11496;SDS011;5805;51.542;7.230;2024-03-08T10:23:31;18.70;;;11.88;;
11496;SDS011;5805;51.542;7.230;2024-03-08T10:25:57;18.75;;;12.02;;
11496;SDS011;5805;51.542;7.230;2024-03-08T10:28:22;16.65;;;11.65;;
11496;SDS011;5805;51.542;7.230;2024-03-08T10:30:48;18.58;;;12.55;;
11496;SDS011;5805;51.542;7.230;2024-03-08T10:33:14;17.15;;;11.90;;
11496;SDS011;5805;51.542;7.230;2024-03-08T10:35:41;16.85;;;11.82;;
11496;SDS011;5805;51.542;7.230;2024-03-08T10:38:07;14.93;;;12.05;;
11496;SDS011;5805;51.542;7.230;2024-03-08T10:40:37;20.00;;;12.18;;
11496;SDS011;5805;51.542;7.230;2024-03-08T10:43:04;17.25;;;12.45;;
11496;SDS011;5805;51.542;7.230;2024-03-08T10:45:31;16.67;;;11.82;;
11496;SDS011;5805;51.542;7.230;2024-03-08T10:48:08;15.23;;;11.88;;
11496;SDS011;5805;51.542;7.230;2024-03-08T10:50:43;15.80;;;12.07;;
11496;SDS011;5805;51.542;7.230;2024-03-08T10:53:09;16.45;;;12.07;;
11496;SDS011;5805;51.542;7.230;2024-03-08T10:55:36;17.15;;;12.50;;
11496;SDS011;5805;51.542;7.230;2024-03-08T10:58:04;15.02;;;12.27;;
11496;SDS011;5805;51.542;7.230;2024-03-08T11:00:30;14.80;;;12.00;;
11496;SDS011;5805;51.542;7.230;2024-03-08T11:02:55;17.58;;;12.77;;
11496;SDS011;5805;51.542;7.230;2024-03-08T11:05:31;15.40;;;12.30;;
11496;SDS011;5805;51.542;7.230;2024-03-08T11:08:01;15.48;;;11.60;;
11496;SDS011;5805;51.542;7.230;2024-03-08T11:10:27;17.77;;;11.90;;
11496;SDS011;5805;51.542;7.230;2024-03-08T11:12:53;16.08;;;12.20;;
11496;SDS011;5805;51.542;7.230;2024-03-08T11:15:19;15.05;;;12.35;;
11496;SDS011;5805;51.542;7.230;2024-03-08T11:17:45;16.05;;;11.63;;
11496;SDS011;5805;51.542;7.230;2024-03-08T11:20:12;18.38;;;12.52;;
11496;SDS011;5805;51.542;7.230;2024-03-08T11:22:39;15.38;;;11.85;;
11496;SDS011;5805;51.542;7.230;2024-03-08T11:25:08;15.73;;;11.35;;
11496;SDS011;5805;51.542;7.230;2024-03-08T11:27:34;19.48;;;12.18;;
11496;SDS011;5805;51.542;7.230;2024-03-08T11:30:01;15.65;;;11.55;;
11496;SDS011;5805;51.542;7.230;2024-03-08T11:32:29;16.73;;;12.02;;
11496;SDS011;5805;51.542;7.230;2024-03-08T11:34:54;14.70;;;11.43;;
11496;SDS011;5805;51.542;7.230;2024-03-08T11:37:20;16.08;;;12.05;;
11496;SDS011;5805;51.542;7.230;2024-03-08T11:39:53;15.10;;;12.65;;
11496;SDS011;5805;51.542;7.230;2024-03-08T11:42:21;14.40;;;10.63;;
11496;SDS011;5805;51.542;7.230;2024-03-08T11:44:47;16.23;;;11.80;;
11496;SDS011;5805;51.542;7.230;2024-03-08T11:47:13;16.55;;;11.50;;
11496;SDS011;5805;51.542;7.230;2024-03-08T11:49:39;14.65;;;11.52;;
11496;SDS011;5805;51.542;7.230;2024-03-08T11:52:05;15.73;;;11.43;;
11496;SDS011;5805;51.542;7.230;2024-03-08T11:54:30;18.13;;;12.02;;
11496;SDS011;5805;51.542;7.230;2024-03-08T11:56:56;15.75;;;12.20;;
11496;SDS011;5805;51.542;7.230;2024-03-08T11:59:24;14.45;;;11.43;;
11496;SDS011;5805;51.542;7.230;2024-03-08T12:01:59;16.25;;;11.00;;
11496;SDS011;5805;51.542;7.230;2024-03-08T12:04:26;14.05;;;11.27;;
11496;SDS011;5805;51.542;7.230;2024-03-08T12:06:52;15.45;;;11.20;;
11496;SDS011;5805;51.542;7.230;2024-03-08T12:09:18;15.70;;;10.02;;
11496;SDS011;5805;51.542;7.230;2024-03-08T12:11:44;15.07;;;11.40;;
11496;SDS011;5805;51.542;7.230;2024-03-08T12:14:12;19.08;;;10.05;;
11496;SDS011;5805;51.542;7.230;2024-03-08T12:16:40;13.65;;;11.30;;
11496;SDS011;5805;51.542;7.230;2024-03-08T12:19:08;14.20;;;10.77;;
11496;SDS011;5805;51.542;7.230;2024-03-08T12:21:35;12.38;;;9.32;;
11496;SDS011;5805;51.542;7.230;2024-03-08T12:24:02;16.33;;;10.98;;
11496;SDS011;5805;51.542;7.230;2024-03-08T12:26:29;13.93;;;10.90;;
11496;SDS011;5805;51.542;7.230;2024-03-08T12:29:00;13.43;;;10.65;;
11496;SDS011;5805;51.542;7.230;2024-03-08T12:31:41;8.95;;;7.35;;
11496;SDS011;5805;51.542;7.230;2024-03-08T12:34:07;12.65;;;8.32;;
11496;SDS011;5805;51.542;7.230;2024-03-08T12:36:33;10.55;;;7.80;;
11496;SDS011;5805;51.542;7.230;2024-03-08T12:38:59;8.20;;;6.30;;
11496;SDS011;5805;51.542;7.230;2024-03-08T12:41:25;7.47;;;5.85;;
11496;SDS011;5805;51.542;7.230;2024-03-08T12:43:50;8.02;;;5.80;;
11496;SDS011;5805;51.542;7.230;2024-03-08T12:46:16;8.80;;;6.55;;
11496;SDS011;5805;51.542;7.230;2024-03-08T12:48:44;10.20;;;5.95;;
11496;SDS011;5805;51.542;7.230;2024-03-08T12:51:09;7.82;;;6.13;;
11496;SDS011;5805;51.542;7.230;2024-03-08T12:53:35;6.40;;;5.65;;
11496;SDS011;5805;51.542;7.230;2024-03-08T12:56:01;7.40;;;5.93;;
11496;SDS011;5805;51.542;7.230;2024-03-08T12:58:27;7.50;;;6.25;;
11496;SDS011;5805;51.542;7.230;2024-03-08T13:00:53;6.53;;;5.82;;
11496;SDS011;5805;51.542;7.230;2024-03-08T13:03:19;8.65;;;5.82;;
11496;SDS011;5805;51.542;7.230;2024-03-08T13:05:46;6.97;;;6.18;;
11496;SDS011;5805;51.542;7.230;2024-03-08T13:08:11;7.78;;;6.30;;
11496;SDS011;5805;51.542;7.230;2024-03-08T13:10:37;7.63;;;6.38;;
11496;SDS011;5805;51.542;7.230;2024-03-08T13:13:04;7.80;;;5.40;;
11496;SDS011;5805;51.542;7.230;2024-03-08T13:15:29;7.55;;;5.97;;
11496;SDS011;5805;51.542;7.230;2024-03-08T13:17:55;9.20;;;6.70;;
11496;SDS011;5805;51.542;7.230;2024-03-08T13:20:21;7.25;;;6.07;;
11496;SDS011;5805;51.542;7.230;2024-03-08T13:22:48;8.93;;;7.13;;
11496;SDS011;5805;51.542;7.230;2024-03-08T13:25:13;8.60;;;6.68;;
11496;SDS011;5805;51.542;7.230;2024-03-08T13:27:39;9.18;;;6.57;;
11496;SDS011;5805;51.542;7.230;2024-03-08T13:30:06;7.45;;;6.38;;
11496;SDS011;5805;51.542;7.230;2024-03-08T13:32:32;9.27;;;6.75;;
11496;SDS011;5805;51.542;7.230;2024-03-08T13:34:58;9.10;;;6.78;;
11496;SDS011;5805;51.542;7.230;2024-03-08T13:37:23;10.68;;;7.72;;
11496;SDS011;5805;51.542;7.230;2024-03-08T13:39:50;8.63;;;6.82;;
11496;SDS011;5805;51.542;7.230;2024-03-08T13:42:16;9.75;;;7.38;;
11496;SDS011;5805;51.542;7.230;2024-03-08T13:44:45;9.38;;;7.13;;
11496;SDS011;5805;51.542;7.230;2024-03-08T13:47:11;10.52;;;7.68;;
11496;SDS011;5805;51.542;7.230;2024-03-08T13:49:37;8.98;;;7.57;;
11496;SDS011;5805;51.542;7.230;2024-03-08T13:52:03;10.63;;;7.82;;
11496;SDS011;5805;51.542;7.230;2024-03-08T13:54:29;10.43;;;7.45;;
11496;SDS011;5805;51.542;7.230;2024-03-08T13:56:56;10.98;;;7.90;;
11496;SDS011;5805;51.542;7.230;2024-03-08T13:59:22;11.60;;;7.47;;
11496;SDS011;5805;51.542;7.230;2024-03-08T14:01:48;8.85;;;7.40;;
11496;SDS011;5805;51.542;7.230;2024-03-08T14:04:14;10.55;;;8.27;;
11496;SDS011;5805;51.542;7.230;2024-03-08T14:06:39;9.95;;;8.02;;
11496;SDS011;5805;51.542;7.230;2024-03-08T14:09:05;11.48;;;8.65;;
11496;SDS011;5805;51.542;7.230;2024-03-08T14:11:31;10.65;;;8.27;;
11496;SDS011;5805;51.542;7.230;2024-03-08T14:13:58;8.75;;;7.15;;
11496;SDS011;5805;51.542;7.230;2024-03-08T14:16:24;10.93;;;9.13;;
11496;SDS011;5805;51.542;7.230;2024-03-08T14:18:49;12.45;;;8.13;;
11496;SDS011;5805;51.542;7.230;2024-03-08T14:21:15;12.25;;;7.82;;
11496;SDS011;5805;51.542;7.230;2024-03-08T14:23:41;12.77;;;9.30;;
11496;SDS011;5805;51.542;7.230;2024-03-08T14:26:06;12.48;;;8.75;;
11496;SDS011;5805;51.542;7.230;2024-03-08T14:28:32;12.60;;;8.95;;
11496;SDS011;5805;51.542;7.230;2024-03-08T14:31:01;11.32;;;8.55;;